Terminal Aerodrome Forecast
Issued by NWS Mt. Holly, NJ

Home | Current Version | Previous Version | Text Only | Print | Product List | Glossary On
Versions: 1 2 3 4 5 6 7 8 9 10 11 12 13 14 15 16 17 18 19 20 21 22 23 24 25 26 27 28 29 30 31 32 33 34 35 36 37
444
FTUS41 KPHI 221141
TAFPHL
TAF
KPHL 221141Z 2212/2318 04011KT P6SM VCSH OVC040
     FM221400 04011KT 6SM -RA OVC025
     FM221600 04010KT 5SM -RA OVC015
     FM221800 05010KT 2SM -RA BR OVC010
     FM222300 04009KT 3SM -RA BR OVC008
     FM230200 06008KT 6SM BR OVC008
     FM231300 09008KT 5SM -RA BR OVC008=

USA.gov is the U.S. government's official web portal to all federal, state and local government web resources and services.